Cooperative Ambassador — WDB9871 — position and weather

sailwx.info

Track history (hours):
 
Tides and Currents Weather Stations Pressure Air Temp Water Temp Dewpoint Dewpoint Depression Visibility Wind Speed Wind Dir Waves Ship Positions

Cooperative Ambassador

Owner: American River Transportation Company, St Louis, MO. More information available from US FCC via Universal Licensing System and Coast Guard Vessel Documentation Center.

Last reported at 2018-Jan-22 14:48 UTC. Time now 2018-Feb-24 06:37 UTC.
Position N 31°04' W 091°34'.
Warning: this ship's position is 32 days out of date.

Length 43 m.

Type: Towing. MMSI: 366984260.

Date/timePositionNaut miles runAvg speedWind from/ knotsBaromVisibWave heightAir tempDewpointWater temp
2018-Jan-22 14:48N 31°04' W 091°34'2 7.1
2018-Jan-22 14:31N 31°05' W 091°36'59 4.7
2018-Jan-22 01:48N 31°59' W 091°07'2 7.1
2018-Jan-22 01:30N 32°00' W 091°05'6 6.5
2018-Jan-22 00:36N 32°06' W 091°06'1 8.9
2018-Jan-22 00:30N 32°07' W 091°06'3 5.5
2018-Jan-22 00:00N 32°07' W 091°03'3 6.1
2018-Jan-21 23:30N 32°09' W 091°00'4 7.7
2018-Jan-21 23:00N 32°13' W 090°59'4 7.7
2018-Jan-21 22:30N 32°16' W 090°57'3 6.7
2018-Jan-21 22:01N 32°19' W 090°54'3 5.4
2018-Jan-21 21:31N 32°21' W 090°56'3 6.6
2018-Jan-21 21:00N 32°22' W 091°00'4 7.2
2018-Jan-21 20:30N 32°25' W 091°00'4 7.7
2018-Jan-21 20:00N 32°27' W 091°04'3 7.0
2018-Jan-21 19:30N 32°29' W 091°07'4 8.1
2018-Jan-21 19:00N 32°33' W 091°06'4 7.6
2018-Jan-21 18:30N 32°36' W 091°09'4 7.3
2018-Jan-21 18:00N 32°40' W 091°08'  
Track history (hours):
 
Tides and Currents Weather Stations Pressure Air Temp Water Temp Dewpoint Dewpoint Depression Visibility Wind Speed Wind Dir Waves Ship Positions

Cooperative Ambassador

Owner: American River Transportation Company, St Louis, MO. More information available from US FCC via Universal Licensing System and Coast Guard Vessel Documentation Center.

Last reported at 2018-Jan-22 14:48 UTC. Time now 2018-Feb-24 06:37 UTC.
Position N 31°04' W 091°34'.
Warning: this ship's position is 32 days out of date.

Length 43 m.

Type: Towing. MMSI: 366984260.

Date/timePositionNaut miles runAvg speedWind from/ knotsBaromVisibWave heightAir tempDewpointWater temp
2018-Jan-22 14:48N 31°04' W 091°34'2 7.1
2018-Jan-22 14:31N 31°05' W 091°36'59 4.7
2018-Jan-22 01:48N 31°59' W 091°07'2 7.1
2018-Jan-22 01:30N 32°00' W 091°05'6 6.5
2018-Jan-22 00:36N 32°06' W 091°06'1 8.9
2018-Jan-22 00:30N 32°07' W 091°06'3 5.5
2018-Jan-22 00:00N 32°07' W 091°03'3 6.1
2018-Jan-21 23:30N 32°09' W 091°00'4 7.7
2018-Jan-21 23:00N 32°13' W 090°59'4 7.7
2018-Jan-21 22:30N 32°16' W 090°57'3 6.7
2018-Jan-21 22:01N 32°19' W 090°54'3 5.4
2018-Jan-21 21:31N 32°21' W 090°56'3 6.6
2018-Jan-21 21:00N 32°22' W 091°00'4 7.2
2018-Jan-21 20:30N 32°25' W 091°00'4 7.7
2018-Jan-21 20:00N 32°27' W 091°04'3 7.0
2018-Jan-21 19:30N 32°29' W 091°07'4 8.1
2018-Jan-21 19:00N 32°33' W 091°06'4 7.6
2018-Jan-21 18:30N 32°36' W 091°09'4 7.3
2018-Jan-21 18:00N 32°40' W 091°08'  

Dump ship's entire track history